sensor_id;sensor_type;location;lat;lon;timestamp;P1;P2;P0
46591;PMS6003;32314;48.748;9.656;2022-09-01T00:01:32;28.75;27.00;20.25
46591;PMS6003;32314;48.748;9.656;2022-09-01T00:04:20;21.00;19.75;16.00
46591;PMS6003;32314;48.748;9.656;2022-09-01T00:07:11;29.75;28.75;20.00
46591;PMS6003;32314;48.748;9.656;2022-09-01T00:09:58;26.25;26.25;17.75
46591;PMS6003;32314;48.748;9.656;2022-09-01T00:12:44;26.50;25.75;19.75
46591;PMS6003;32314;48.748;9.656;2022-09-01T00:15:30;23.50;22.25;17.75
46591;PMS6003;32314;48.748;9.656;2022-09-01T00:18:16;23.50;21.25;17.00
46591;PMS6003;32314;48.748;9.656;2022-09-01T00:21:02;27.50;26.00;18.25
46591;PMS6003;32314;48.748;9.656;2022-09-01T00:23:48;27.75;27.75;20.75
46591;PMS6003;32314;48.748;9.656;2022-09-01T00:26:34;26.50;25.00;18.00
46591;PMS6003;32314;48.748;9.656;2022-09-01T00:29:20;23.50;23.50;19.50
46591;PMS6003;32314;48.748;9.656;2022-09-01T00:32:06;29.25;28.00;21.00
46591;PMS6003;32314;48.748;9.656;2022-09-01T00:34:52;27.25;26.75;19.25
46591;PMS6003;32314;48.748;9.656;2022-09-01T00:37:38;25.00;23.50;18.00
46591;PMS6003;32314;48.748;9.656;2022-09-01T00:40:25;27.75;26.00;18.50
46591;PMS6003;32314;48.748;9.656;2022-09-01T00:43:34;22.50;22.50;17.00
46591;PMS6003;32314;48.748;9.656;2022-09-01T00:46:38;27.00;26.25;19.50
46591;PMS6003;32314;48.748;9.656;2022-09-01T00:52:33;22.75;22.00;17.25
46591;PMS6003;32314;48.748;9.656;2022-09-01T00:55:26;32.25;29.25;19.75
46591;PMS6003;32314;48.748;9.656;2022-09-01T00:58:14;18.00;18.00;14.25
46591;PMS6003;32314;48.748;9.656;2022-09-01T01:01:00;22.50;22.50;18.00
46591;PMS6003;32314;48.748;9.656;2022-09-01T01:03:47;21.50;20.75;15.75
46591;PMS6003;32314;48.748;9.656;2022-09-01T01:06:32;21.25;21.25;16.75
46591;PMS6003;32314;48.748;9.656;2022-09-01T01:09:19;20.25;20.25;15.75
46591;PMS6003;32314;48.748;9.656;2022-09-01T01:12:08;22.75;22.75;17.50
46591;PMS6003;32314;48.748;9.656;2022-09-01T01:15:02;18.25;18.25;14.75
46591;PMS6003;32314;48.748;9.656;2022-09-01T01:17:51;21.25;21.25;16.00
46591;PMS6003;32314;48.748;9.656;2022-09-01T01:20:37;23.00;23.00;16.00
46591;PMS6003;32314;48.748;9.656;2022-09-01T01:23:47;25.00;22.50;18.25
46591;PMS6003;32314;48.748;9.656;2022-09-01T01:26:42;21.75;21.50;16.25
46591;PMS6003;32314;48.748;9.656;2022-09-01T01:29:32;23.00;23.00;16.50
46591;PMS6003;32314;48.748;9.656;2022-09-01T01:32:21;23.75;23.00;19.00
46591;PMS6003;32314;48.748;9.656;2022-09-01T01:35:07;26.00;23.75;17.75
46591;PMS6003;32314;48.748;9.656;2022-09-01T01:38:00;25.50;25.50;17.50
46591;PMS6003;32314;48.748;9.656;2022-09-01T01:40:46;25.50;25.50;18.50
46591;PMS6003;32314;48.748;9.656;2022-09-01T01:43:33;26.75;25.25;20.50
46591;PMS6003;32314;48.748;9.656;2022-09-01T01:46:18;24.25;24.25;18.25
46591;PMS6003;32314;48.748;9.656;2022-09-01T01:49:04;27.50;27.50;19.75
46591;PMS6003;32314;48.748;9.656;2022-09-01T01:51:52;23.50;22.50;16.75
46591;PMS6003;32314;48.748;9.656;2022-09-01T01:54:43;22.00;22.00;14.25
46591;PMS6003;32314;48.748;9.656;2022-09-01T01:57:30;26.00;26.00;18.75
46591;PMS6003;32314;48.748;9.656;2022-09-01T02:00:21;23.00;23.00;17.75
46591;PMS6003;32314;48.748;9.656;2022-09-01T02:03:11;25.00;25.00;18.25
46591;PMS6003;32314;48.748;9.656;2022-09-01T02:06:07;24.75;24.75;20.00
46591;PMS6003;32314;48.748;9.656;2022-09-01T02:08:55;23.75;22.50;18.00
46591;PMS6003;32314;48.748;9.656;2022-09-01T02:11:42;25.75;25.75;19.50
46591;PMS6003;32314;48.748;9.656;2022-09-01T02:14:30;23.50;23.50;15.75
46591;PMS6003;32314;48.748;9.656;2022-09-01T02:17:15;25.75;25.75;18.00
46591;PMS6003;32314;48.748;9.656;2022-09-01T02:20:02;22.50;22.50;18.50
46591;PMS6003;32314;48.748;9.656;2022-09-01T02:22:48;23.00;23.00;17.00
46591;PMS6003;32314;48.748;9.656;2022-09-01T02:25:40;26.25;25.75;18.00
46591;PMS6003;32314;48.748;9.656;2022-09-01T02:28:30;24.75;23.25;17.00
46591;PMS6003;32314;48.748;9.656;2022-09-01T02:31:17;25.50;25.25;19.00
46591;PMS6003;32314;48.748;9.656;2022-09-01T02:34:05;27.75;25.75;20.25
46591;PMS6003;32314;48.748;9.656;2022-09-01T02:36:56;30.00;28.75;20.75
46591;PMS6003;32314;48.748;9.656;2022-09-01T02:39:43;21.50;20.75;16.50
46591;PMS6003;32314;48.748;9.656;2022-09-01T02:42:30;22.75;22.25;18.00
46591;PMS6003;32314;48.748;9.656;2022-09-01T02:45:16;25.25;24.00;17.00
46591;PMS6003;32314;48.748;9.656;2022-09-01T02:48:04;26.50;23.00;16.50
46591;PMS6003;32314;48.748;9.656;2022-09-01T02:50:54;23.75;23.75;17.50
46591;PMS6003;32314;48.748;9.656;2022-09-01T02:53:42;21.75;21.75;15.75
46591;PMS6003;32314;48.748;9.656;2022-09-01T02:56:29;19.75;19.75;16.50
46591;PMS6003;32314;48.748;9.656;2022-09-01T02:59:15;21.50;21.50;18.25
46591;PMS6003;32314;48.748;9.656;2022-09-01T03:02:02;24.75;24.00;16.00
46591;PMS6003;32314;48.748;9.656;2022-09-01T03:04:48;23.75;23.75;19.25
46591;PMS6003;32314;48.748;9.656;2022-09-01T03:07:38;21.50;20.00;14.00
46591;PMS6003;32314;48.748;9.656;2022-09-01T03:10:28;30.00;27.25;18.75
46591;PMS6003;32314;48.748;9.656;2022-09-01T03:13:21;21.75;21.75;16.50
46591;PMS6003;32314;48.748;9.656;2022-09-01T03:16:11;27.75;26.00;19.25
46591;PMS6003;32314;48.748;9.656;2022-09-01T03:18:57;28.25;25.75;17.75
46591;PMS6003;32314;48.748;9.656;2022-09-01T03:21:45;25.25;25.25;21.25
46591;PMS6003;32314;48.748;9.656;2022-09-01T03:24:34;25.25;25.25;19.50
46591;PMS6003;32314;48.748;9.656;2022-09-01T03:27:20;28.00;27.25;20.00
46591;PMS6003;32314;48.748;9.656;2022-09-01T03:30:06;28.25;26.00;19.50
46591;PMS6003;32314;48.748;9.656;2022-09-01T03:32:53;24.00;24.00;17.50
46591;PMS6003;32314;48.748;9.656;2022-09-01T03:35:39;25.25;24.00;18.00
46591;PMS6003;32314;48.748;9.656;2022-09-01T03:38:25;24.50;24.25;18.50
46591;PMS6003;32314;48.748;9.656;2022-09-01T03:41:12;23.00;23.00;16.00
46591;PMS6003;32314;48.748;9.656;2022-09-01T03:43:58;25.50;25.00;19.00
46591;PMS6003;32314;48.748;9.656;2022-09-01T03:46:46;23.50;23.50;17.75
46591;PMS6003;32314;48.748;9.656;2022-09-01T03:49:32;26.00;26.00;20.75
46591;PMS6003;32314;48.748;9.656;2022-09-01T03:52:18;30.50;28.75;21.50
46591;PMS6003;32314;48.748;9.656;2022-09-01T03:55:04;28.00;28.00;21.50
46591;PMS6003;32314;48.748;9.656;2022-09-01T03:57:52;28.00;25.00;19.25
46591;PMS6003;32314;48.748;9.656;2022-09-01T04:00:42;27.00;27.00;19.00
46591;PMS6003;32314;48.748;9.656;2022-09-01T04:03:30;29.00;29.00;19.75
46591;PMS6003;32314;48.748;9.656;2022-09-01T04:06:20;29.25;27.75;21.00
46591;PMS6003;32314;48.748;9.656;2022-09-01T04:09:08;26.25;26.25;20.50
46591;PMS6003;32314;48.748;9.656;2022-09-01T04:11:55;26.00;25.00;18.00
46591;PMS6003;32314;48.748;9.656;2022-09-01T04:14:42;26.75;26.75;22.00
46591;PMS6003;32314;48.748;9.656;2022-09-01T04:17:27;26.75;26.00;20.75
46591;PMS6003;32314;48.748;9.656;2022-09-01T04:20:32;28.75;28.75;21.50
46591;PMS6003;32314;48.748;9.656;2022-09-01T04:26:12;29.25;28.75;20.50
46591;PMS6003;32314;48.748;9.656;2022-09-01T04:29:04;28.25;26.75;17.75
46591;PMS6003;32314;48.748;9.656;2022-09-01T04:31:54;31.25;31.25;22.00
46591;PMS6003;32314;48.748;9.656;2022-09-01T04:34:47;36.00;34.50;23.25
46591;PMS6003;32314;48.748;9.656;2022-09-01T04:37:34;48.75;38.75;25.50
46591;PMS6003;32314;48.748;9.656;2022-09-01T04:40:21;47.75;41.00;25.00
46591;PMS6003;32314;48.748;9.656;2022-09-01T04:43:08;46.00;39.25;25.50
46591;PMS6003;32314;48.748;9.656;2022-09-01T04:45:54;46.75;39.25;25.50
46591;PMS6003;32314;48.748;9.656;2022-09-01T04:48:41;47.75;37.75;24.75
46591;PMS6003;32314;48.748;9.656;2022-09-01T04:51:29;45.25;38.50;24.75
46591;PMS6003;32314;48.748;9.656;2022-09-01T04:54:16;42.50;38.25;24.75
46591;PMS6003;32314;48.748;9.656;2022-09-01T04:57:04;43.75;38.75;25.00
46591;PMS6003;32314;48.748;9.656;2022-09-01T04:59:55;45.00;37.00;24.75
46591;PMS6003;32314;48.748;9.656;2022-09-01T05:02:42;43.50;37.25;26.00
46591;PMS6003;32314;48.748;9.656;2022-09-01T05:05:41;40.00;35.75;22.25
46591;PMS6003;32314;48.748;9.656;2022-09-01T05:08:28;44.50;38.75;26.50
46591;PMS6003;32314;48.748;9.656;2022-09-01T05:11:17;44.25;38.75;25.75
46591;PMS6003;32314;48.748;9.656;2022-09-01T05:14:06;45.50;39.75;24.75
46591;PMS6003;32314;48.748;9.656;2022-09-01T05:16:58;42.00;36.50;24.00
46591;PMS6003;32314;48.748;9.656;2022-09-01T05:19:46;48.25;39.75;26.00
46591;PMS6003;32314;48.748;9.656;2022-09-01T05:22:35;44.50;37.25;23.75
46591;PMS6003;32314;48.748;9.656;2022-09-01T05:25:25;46.75;39.00;25.00
46591;PMS6003;32314;48.748;9.656;2022-09-01T05:28:11;43.25;39.00;24.75
46591;PMS6003;32314;48.748;9.656;2022-09-01T05:30:58;39.50;36.50;24.75
46591;PMS6003;32314;48.748;9.656;2022-09-01T05:33:46;41.00;36.00;25.00
46591;PMS6003;32314;48.748;9.656;2022-09-01T05:36:35;44.50;39.00;25.75
46591;PMS6003;32314;48.748;9.656;2022-09-01T05:39:25;41.25;36.50;24.00
46591;PMS6003;32314;48.748;9.656;2022-09-01T05:42:12;47.00;39.50;27.00
46591;PMS6003;32314;48.748;9.656;2022-09-01T05:44:59;44.00;37.00;24.00
46591;PMS6003;32314;48.748;9.656;2022-09-01T05:47:46;46.75;39.00;25.00
46591;PMS6003;32314;48.748;9.656;2022-09-01T05:50:33;44.00;37.25;25.75
46591;PMS6003;32314;48.748;9.656;2022-09-01T05:53:19;41.00;36.25;24.25
46591;PMS6003;32314;48.748;9.656;2022-09-01T05:56:06;48.25;37.00;23.00
46591;PMS6003;32314;48.748;9.656;2022-09-01T05:58:53;45.50;38.00;24.00
46591;PMS6003;32314;48.748;9.656;2022-09-01T06:01:40;43.00;38.00;23.25
46591;PMS6003;32314;48.748;9.656;2022-09-01T06:04:26;40.25;35.00;24.00
46591;PMS6003;32314;48.748;9.656;2022-09-01T06:07:16;43.25;37.25;24.00
46591;PMS6003;32314;48.748;9.656;2022-09-01T06:10:07;44.50;38.00;24.25
46591;PMS6003;32314;48.748;9.656;2022-09-01T06:12:54;37.50;34.50;23.25
46591;PMS6003;32314;48.748;9.656;2022-09-01T06:15:40;35.75;33.75;22.50
46591;PMS6003;32314;48.748;9.656;2022-09-01T06:18:26;42.25;37.50;23.25
46591;PMS6003;32314;48.748;9.656;2022-09-01T06:21:16;35.00;33.00;21.00
46591;PMS6003;32314;48.748;9.656;2022-09-01T06:24:02;40.25;36.75;24.00
46591;PMS6003;32314;48.748;9.656;2022-09-01T06:26:51;42.25;37.00;24.00
46591;PMS6003;32314;48.748;9.656;2022-09-01T06:29:39;36.50;34.50;23.00
46591;PMS6003;32314;48.748;9.656;2022-09-01T06:32:26;33.50;32.50;21.00
46591;PMS6003;32314;48.748;9.656;2022-09-01T06:35:14;36.50;33.50;23.25
46591;PMS6003;32314;48.748;9.656;2022-09-01T06:38:01;36.75;33.25;22.50
46591;PMS6003;32314;48.748;9.656;2022-09-01T06:41:03;37.25;33.25;22.25
46591;PMS6003;32314;48.748;9.656;2022-09-01T06:43:55;35.50;33.25;21.25
46591;PMS6003;32314;48.748;9.656;2022-09-01T06:46:42;33.75;32.75;22.00
46591;PMS6003;32314;48.748;9.656;2022-09-01T06:49:28;41.50;34.25;21.00
46591;PMS6003;32314;48.748;9.656;2022-09-01T06:52:24;35.00;31.00;21.00
46591;PMS6003;32314;48.748;9.656;2022-09-01T06:55:11;30.75;30.75;22.50
46591;PMS6003;32314;48.748;9.656;2022-09-01T06:57:58;37.50;31.75;22.00
46591;PMS6003;32314;48.748;9.656;2022-09-01T07:00:44;35.75;33.00;22.25
46591;PMS6003;32314;48.748;9.656;2022-09-01T07:03:30;34.25;30.25;21.00
46591;PMS6003;32314;48.748;9.656;2022-09-01T07:06:35;33.25;30.50;22.25
46591;PMS6003;32314;48.748;9.656;2022-09-01T07:09:36;34.75;33.75;21.00
46591;PMS6003;32314;48.748;9.656;2022-09-01T07:12:38;33.50;31.50;22.75
46591;PMS6003;32314;48.748;9.656;2022-09-01T07:15:29;34.50;31.50;21.75
46591;PMS6003;32314;48.748;9.656;2022-09-01T07:18:19;30.25;26.00;19.00
46591;PMS6003;32314;48.748;9.656;2022-09-01T07:21:07;31.25;30.25;19.75
46591;PMS6003;32314;48.748;9.656;2022-09-01T07:23:54;34.25;30.00;21.00
46591;PMS6003;32314;48.748;9.656;2022-09-01T07:26:42;34.50;31.50;21.75
46591;PMS6003;32314;48.748;9.656;2022-09-01T07:29:28;32.00;27.25;21.00
46591;PMS6003;32314;48.748;9.656;2022-09-01T07:32:14;27.50;26.50;17.50
46591;PMS6003;32314;48.748;9.656;2022-09-01T07:35:01;26.50;26.50;19.75
46591;PMS6003;32314;48.748;9.656;2022-09-01T07:37:50;23.00;23.00;17.75
46591;PMS6003;32314;48.748;9.656;2022-09-01T07:40:40;22.50;21.75;16.00
46591;PMS6003;32314;48.748;9.656;2022-09-01T07:43:29;23.25;23.00;17.50
46591;PMS6003;32314;48.748;9.656;2022-09-01T07:46:49;22.25;21.00;14.00
46591;PMS6003;32314;48.748;9.656;2022-09-01T07:49:37;27.25;26.00;17.50
46591;PMS6003;32314;48.748;9.656;2022-09-01T07:52:24;26.25;26.25;19.25
46591;PMS6003;32314;48.748;9.656;2022-09-01T07:55:15;21.00;19.25;13.75
46591;PMS6003;32314;48.748;9.656;2022-09-01T07:58:01;26.25;23.50;18.00
46591;PMS6003;32314;48.748;9.656;2022-09-01T08:00:49;24.75;24.25;16.25
46591;PMS6003;32314;48.748;9.656;2022-09-01T08:03:36;19.25;19.25;15.25
46591;PMS6003;32314;48.748;9.656;2022-09-01T08:06:24;19.50;19.50;15.25
46591;PMS6003;32314;48.748;9.656;2022-09-01T08:09:12;24.00;22.00;16.50
46591;PMS6003;32314;48.748;9.656;2022-09-01T08:11:58;23.25;23.25;17.00
46591;PMS6003;32314;48.748;9.656;2022-09-01T08:14:44;23.75;22.25;17.00
46591;PMS6003;32314;48.748;9.656;2022-09-01T08:17:31;26.00;25.00;17.50
46591;PMS6003;32314;48.748;9.656;2022-09-01T08:20:20;25.50;25.50;18.50
46591;PMS6003;32314;48.748;9.656;2022-09-01T08:23:19;20.00;19.00;16.25
46591;PMS6003;32314;48.748;9.656;2022-09-01T08:26:06;20.25;17.25;13.50
46591;PMS6003;32314;48.748;9.656;2022-09-01T08:28:53;19.00;18.00;14.00
46591;PMS6003;32314;48.748;9.656;2022-09-01T08:31:46;21.50;19.75;15.00
46591;PMS6003;32314;48.748;9.656;2022-09-01T08:34:33;21.50;18.00;14.25
46591;PMS6003;32314;48.748;9.656;2022-09-01T08:37:19;18.75;16.75;12.00
46591;PMS6003;32314;48.748;9.656;2022-09-01T08:40:06;15.75;15.75;12.00
46591;PMS6003;32314;48.748;9.656;2022-09-01T08:46:07;17.75;16.75;13.00
46591;PMS6003;32314;48.748;9.656;2022-09-01T08:49:20;16.50;16.50;13.00
46591;PMS6003;32314;48.748;9.656;2022-09-01T08:52:33;15.50;15.50;11.75
46591;PMS6003;32314;48.748;9.656;2022-09-01T08:55:25;15.75;15.75;13.00
46591;PMS6003;32314;48.748;9.656;2022-09-01T08:58:15;16.00;16.00;14.00
46591;PMS6003;32314;48.748;9.656;2022-09-01T09:01:26;11.00;11.00;9.00
46591;PMS6003;32314;48.748;9.656;2022-09-01T09:07:56;14.75;14.75;11.25
46591;PMS6003;32314;48.748;9.656;2022-09-01T09:10:48;13.75;13.75;10.50
46591;PMS6003;32314;48.748;9.656;2022-09-01T09:17:04;11.25;11.25;9.50
46591;PMS6003;32314;48.748;9.656;2022-09-01T09:19:50;10.50;10.50;8.75
46591;PMS6003;32314;48.748;9.656;2022-09-01T09:22:36;9.75;9.75;8.00
46591;PMS6003;32314;48.748;9.656;2022-09-01T09:25:23;9.50;9.50;8.00
46591;PMS6003;32314;48.748;9.656;2022-09-01T09:28:09;11.50;11.50;9.50
46591;PMS6003;32314;48.748;9.656;2022-09-01T09:32:00;12.50;12.50;10.00
46591;PMS6003;32314;48.748;9.656;2022-09-01T09:37:29;12.75;12.75;10.75
46591;PMS6003;32314;48.748;9.656;2022-09-01T09:43:04;12.00;12.00;11.00
46591;PMS6003;32314;48.748;9.656;2022-09-01T09:45:51;9.75;9.75;7.25
46591;PMS6003;32314;48.748;9.656;2022-09-01T09:55:01;14.25;12.75;10.00
46591;PMS6003;32314;48.748;9.656;2022-09-01T09:57:52;12.00;12.00;10.50
46591;PMS6003;32314;48.748;9.656;2022-09-01T10:01:14;13.00;13.00;10.00
46591;PMS6003;32314;48.748;9.656;2022-09-01T10:04:06;12.75;11.75;10.75
46591;PMS6003;32314;48.748;9.656;2022-09-01T10:06:52;15.50;15.25;11.50
46591;PMS6003;32314;48.748;9.656;2022-09-01T10:09:38;12.75;12.75;10.25
46591;PMS6003;32314;48.748;9.656;2022-09-01T10:12:24;12.00;12.00;10.00
46591;PMS6003;32314;48.748;9.656;2022-09-01T10:15:11;15.50;13.75;10.00
46591;PMS6003;32314;48.748;9.656;2022-09-01T10:17:59;10.00;10.00;8.50
46591;PMS6003;32314;48.748;9.656;2022-09-01T10:20:52;12.00;12.00;11.00
46591;PMS6003;32314;48.748;9.656;2022-09-01T10:23:41;12.25;11.25;9.75
46591;PMS6003;32314;48.748;9.656;2022-09-01T10:32:11;11.75;11.75;10.50
46591;PMS6003;32314;48.748;9.656;2022-09-01T10:35:01;8.75;8.75;8.00
46591;PMS6003;32314;48.748;9.656;2022-09-01T10:37:49;9.50;9.50;9.00
46591;PMS6003;32314;48.748;9.656;2022-09-01T10:40:37;9.25;9.25;8.00
46591;PMS6003;32314;48.748;9.656;2022-09-01T10:43:37;11.75;11.75;10.00
46591;PMS6003;32314;48.748;9.656;2022-09-01T10:52:59;11.00;11.00;10.00
46591;PMS6003;32314;48.748;9.656;2022-09-01T10:55:26;9.50;9.50;8.75
46591;PMS6003;32314;48.748;9.656;2022-09-01T11:13:32;6.00;6.00;6.00
46591;PMS6003;32314;48.748;9.656;2022-09-01T11:31:14;11.75;11.75;9.50
46591;PMS6003;32314;48.748;9.656;2022-09-01T11:34:11;11.25;11.25;9.50
46591;PMS6003;32314;48.748;9.656;2022-09-01T11:36:58;11.00;11.00;9.25
46591;PMS6003;32314;48.748;9.656;2022-09-01T11:39:47;13.00;13.00;11.00
46591;PMS6003;32314;48.748;9.656;2022-09-01T11:42:41;9.75;9.75;9.00
46591;PMS6003;32314;48.748;9.656;2022-09-01T11:45:29;10.00;10.00;8.75
46591;PMS6003;32314;48.748;9.656;2022-09-01T11:48:17;10.25;10.25;9.25
46591;PMS6003;32314;48.748;9.656;2022-09-01T11:51:03;9.00;9.00;8.75
46591;PMS6003;32314;48.748;9.656;2022-09-01T11:53:49;12.00;12.00;9.75
46591;PMS6003;32314;48.748;9.656;2022-09-01T11:56:36;12.50;10.75;9.75
46591;PMS6003;32314;48.748;9.656;2022-09-01T11:59:35;10.00;10.00;8.50
46591;PMS6003;32314;48.748;9.656;2022-09-01T12:02:24;10.00;10.00;8.75
46591;PMS6003;32314;48.748;9.656;2022-09-01T12:08:14;10.50;10.50;9.00
46591;PMS6003;32314;48.748;9.656;2022-09-01T12:11:17;10.00;10.00;9.25
46591;PMS6003;32314;48.748;9.656;2022-09-01T12:14:06;12.50;12.50;10.50
46591;PMS6003;32314;48.748;9.656;2022-09-01T12:16:57;6.50;6.50;5.75
46591;PMS6003;32314;48.748;9.656;2022-09-01T12:19:50;12.00;11.25;10.00
46591;PMS6003;32314;48.748;9.656;2022-09-01T12:22:36;13.00;13.00;11.50
46591;PMS6003;32314;48.748;9.656;2022-09-01T12:25:24;11.50;11.50;9.50
46591;PMS6003;32314;48.748;9.656;2022-09-01T12:28:12;14.75;14.75;12.00
46591;PMS6003;32314;48.748;9.656;2022-09-01T12:30:59;9.00;9.00;7.50
46591;PMS6003;32314;48.748;9.656;2022-09-01T12:33:47;18.00;12.25;10.75
46591;PMS6003;32314;48.748;9.656;2022-09-01T12:36:34;11.75;11.75;10.50
46591;PMS6003;32314;48.748;9.656;2022-09-01T12:39:24;13.00;13.00;11.00
46591;PMS6003;32314;48.748;9.656;2022-09-01T12:45:11;12.25;12.25;10.75
46591;PMS6003;32314;48.748;9.656;2022-09-01T12:47:57;11.25;10.75;9.00
46591;PMS6003;32314;48.748;9.656;2022-09-01T12:50:43;12.25;12.25;10.00
46591;PMS6003;32314;48.748;9.656;2022-09-01T12:53:30;9.00;9.00;7.75
46591;PMS6003;32314;48.748;9.656;2022-09-01T12:56:22;10.50;10.50;8.75
46591;PMS6003;32314;48.748;9.656;2022-09-01T12:59:24;11.25;11.25;10.00
46591;PMS6003;32314;48.748;9.656;2022-09-01T13:02:26;9.50;9.00;8.00
46591;PMS6003;32314;48.748;9.656;2022-09-01T13:05:28;10.75;10.75;9.50
46591;PMS6003;32314;48.748;9.656;2022-09-01T13:08:21;9.00;9.00;8.00
46591;PMS6003;32314;48.748;9.656;2022-09-01T13:11:14;8.75;8.75;8.50
46591;PMS6003;32314;48.748;9.656;2022-09-01T13:14:02;9.00;8.00;7.25
46591;PMS6003;32314;48.748;9.656;2022-09-01T13:16:48;9.50;9.00;8.25
46591;PMS6003;32314;48.748;9.656;2022-09-01T13:19:35;10.50;10.50;10.00
46591;PMS6003;32314;48.748;9.656;2022-09-01T13:22:22;8.00;8.00;7.25
46591;PMS6003;32314;48.748;9.656;2022-09-01T13:25:08;9.75;9.75;7.75
46591;PMS6003;32314;48.748;9.656;2022-09-01T13:27:55;8.75;8.75;8.00
46591;PMS6003;32314;48.748;9.656;2022-09-01T13:30:42;7.50;7.50;7.00
46591;PMS6003;32314;48.748;9.656;2022-09-01T13:33:31;7.50;7.50;6.50
46591;PMS6003;32314;48.748;9.656;2022-09-01T13:36:18;6.25;6.25;6.00
46591;PMS6003;32314;48.748;9.656;2022-09-01T13:39:04;6.50;5.50;5.00
46591;PMS6003;32314;48.748;9.656;2022-09-01T13:41:50;7.75;7.75;7.00
46591;PMS6003;32314;48.748;9.656;2022-09-01T13:44:36;6.00;6.00;6.00
46591;PMS6003;32314;48.748;9.656;2022-09-01T13:47:22;9.00;9.00;8.00
46591;PMS6003;32314;48.748;9.656;2022-09-01T13:50:09;9.00;9.00;7.67
46591;PMS6003;32314;48.748;9.656;2022-09-01T13:52:57;10.67;10.67;9.33
46591;PMS6003;32314;48.748;9.656;2022-09-01T13:55:43;8.67;8.67;8.00
46591;PMS6003;32314;48.748;9.656;2022-09-01T13:58:29;10.00;10.00;9.33
46591;PMS6003;32314;48.748;9.656;2022-09-01T14:01:15;10.25;9.00;8.00
46591;PMS6003;32314;48.748;9.656;2022-09-01T14:04:01;8.00;8.00;7.75
46591;PMS6003;32314;48.748;9.656;2022-09-01T14:06:50;10.50;10.50;10.00
46591;PMS6003;32314;48.748;9.656;2022-09-01T14:09:36;10.25;10.25;8.50
46591;PMS6003;32314;48.748;9.656;2022-09-01T14:12:21;8.00;6.75;6.00
46591;PMS6003;32314;48.748;9.656;2022-09-01T14:15:08;10.75;10.75;8.50
46591;PMS6003;32314;48.748;9.656;2022-09-01T14:17:56;8.50;8.50;7.75
46591;PMS6003;32314;48.748;9.656;2022-09-01T14:20:44;7.25;7.25;7.00
46591;PMS6003;32314;48.748;9.656;2022-09-01T14:23:31;10.00;10.00;8.25
46591;PMS6003;32314;48.748;9.656;2022-09-01T14:26:17;10.25;10.25;9.00
46591;PMS6003;32314;48.748;9.656;2022-09-01T14:29:03;9.50;9.50;9.25
46591;PMS6003;32314;48.748;9.656;2022-09-01T14:31:49;8.75;7.25;6.25
46591;PMS6003;32314;48.748;9.656;2022-09-01T14:34:35;7.75;7.75;7.00
46591;PMS6003;32314;48.748;9.656;2022-09-01T14:37:22;8.00;8.00;7.50
46591;PMS6003;32314;48.748;9.656;2022-09-01T14:40:09;10.00;10.00;8.67
46591;PMS6003;32314;48.748;9.656;2022-09-01T14:42:55;6.33;6.00;6.00
46591;PMS6003;32314;48.748;9.656;2022-09-01T14:45:41;8.67;8.67;7.00
46591;PMS6003;32314;48.748;9.656;2022-09-01T14:48:32;9.00;9.00;8.00
46591;PMS6003;32314;48.748;9.656;2022-09-01T14:51:24;11.33;11.33;9.67
46591;PMS6003;32314;48.748;9.656;2022-09-01T14:54:12;10.25;9.00;8.25
46591;PMS6003;32314;48.748;9.656;2022-09-01T14:56:57;8.75;8.75;8.00
46591;PMS6003;32314;48.748;9.656;2022-09-01T14:59:43;8.00;8.00;7.00
46591;PMS6003;32314;48.748;9.656;2022-09-01T15:02:29;7.33;7.33;7.00
46591;PMS6003;32314;48.748;9.656;2022-09-01T15:05:17;9.00;9.00;8.00
46591;PMS6003;32314;48.748;9.656;2022-09-01T15:08:03;8.25;8.25;7.50
46591;PMS6003;32314;48.748;9.656;2022-09-01T15:10:49;9.75;9.75;8.00
46591;PMS6003;32314;48.748;9.656;2022-09-01T15:13:35;8.00;8.00;7.67
46591;PMS6003;32314;48.748;9.656;2022-09-01T15:16:22;9.00;9.00;8.00
46591;PMS6003;32314;48.748;9.656;2022-09-01T15:19:12;9.50;9.50;8.25
46591;PMS6003;32314;48.748;9.656;2022-09-01T15:21:58;7.67;7.67;7.33
46591;PMS6003;32314;48.748;9.656;2022-09-01T15:24:45;7.67;7.67;7.00
46591;PMS6003;32314;48.748;9.656;2022-09-01T15:27:31;8.00;8.00;6.33
46591;PMS6003;32314;48.748;9.656;2022-09-01T15:30:17;8.00;8.00;7.00
46591;PMS6003;32314;48.748;9.656;2022-09-01T15:33:04;9.25;9.25;8.25
46591;PMS6003;32314;48.748;9.656;2022-09-01T15:35:51;8.00;8.00;6.75
46591;PMS6003;32314;48.748;9.656;2022-09-01T15:38:37;9.50;8.00;7.75
46591;PMS6003;32314;48.748;9.656;2022-09-01T15:41:24;14.00;12.33;10.33
46591;PMS6003;32314;48.748;9.656;2022-09-01T15:44:14;10.00;10.00;8.00
46591;PMS6003;32314;48.748;9.656;2022-09-01T15:46:59;12.00;12.00;9.67
46591;PMS6003;32314;48.748;9.656;2022-09-01T15:49:45;9.00;9.00;8.50
46591;PMS6003;32314;48.748;9.656;2022-09-01T15:52:31;12.75;12.75;10.75
46591;PMS6003;32314;48.748;9.656;2022-09-01T15:55:22;9.50;8.25;8.00
46591;PMS6003;32314;48.748;9.656;2022-09-01T15:58:11;10.67;10.67;9.67
46591;PMS6003;32314;48.748;9.656;2022-09-01T16:00:58;9.75;9.50;8.75
46591;PMS6003;32314;48.748;9.656;2022-09-01T16:03:45;9.33;9.00;8.00
46591;PMS6003;32314;48.748;9.656;2022-09-01T16:06:32;8.00;8.00;7.00
46591;PMS6003;32314;48.748;9.656;2022-09-01T16:22:35;8.00;8.00;7.00
46591;PMS6003;32314;48.748;9.656;2022-09-01T16:25:41;9.00;9.00;8.00
46591;PMS6003;32314;48.748;9.656;2022-09-01T16:28:36;9.75;8.75;7.25
46591;PMS6003;32314;48.748;9.656;2022-09-01T16:31:29;9.50;9.50;8.50
46591;PMS6003;32314;48.748;9.656;2022-09-01T16:34:19;10.75;9.00;8.00
46591;PMS6003;32314;48.748;9.656;2022-09-01T16:40:28;8.00;8.00;6.25
46591;PMS6003;32314;48.748;9.656;2022-09-01T16:43:36;11.25;10.25;9.25
46591;PMS6003;32314;48.748;9.656;2022-09-01T16:53:59;7.00;7.00;6.00
46591;PMS6003;32314;48.748;9.656;2022-09-01T17:01:37;5.50;5.50;5.50
46591;PMS6003;32314;48.748;9.656;2022-09-01T17:08:30;5.50;5.50;5.25
46591;PMS6003;32314;48.748;9.656;2022-09-01T17:11:31;6.75;6.75;5.75
46591;PMS6003;32314;48.748;9.656;2022-09-01T17:15:03;7.50;7.50;6.50
46591;PMS6003;32314;48.748;9.656;2022-09-01T17:18:39;7.00;7.00;6.00
46591;PMS6003;32314;48.748;9.656;2022-09-01T17:22:14;8.25;8.25;7.75
46591;PMS6003;32314;48.748;9.656;2022-09-01T17:25:08;5.00;5.00;4.75
46591;PMS6003;32314;48.748;9.656;2022-09-01T17:28:22;8.75;8.75;8.00
46591;PMS6003;32314;48.748;9.656;2022-09-01T18:00:03;11.25;11.25;10.00
46591;PMS6003;32314;48.748;9.656;2022-09-01T18:03:03;9.50;9.50;9.00
46591;PMS6003;32314;48.748;9.656;2022-09-01T18:09:17;11.00;11.00;8.50
46591;PMS6003;32314;48.748;9.656;2022-09-01T18:12:12;11.50;11.50;10.00
46591;PMS6003;32314;48.748;9.656;2022-09-01T18:15:15;10.25;10.25;9.25
46591;PMS6003;32314;48.748;9.656;2022-09-01T18:18:50;10.50;10.50;9.00
46591;PMS6003;32314;48.748;9.656;2022-09-01T18:22:00;10.25;10.25;10.25
46591;PMS6003;32314;48.748;9.656;2022-09-01T18:28:44;10.00;10.00;8.75
46591;PMS6003;32314;48.748;9.656;2022-09-01T18:35:15;10.00;10.00;9.00